Time;durP1;ratioP1;P1;durP2;ratioP2;P2;SDS_P1;SDS_P2;PMS_P1;PMS_P2;Temp;Humidity;BMP_temperature;BMP_pressure;BME280_temperature;BME280_humidity;BME280_pressure;Samples;Min_cycle;Max_cycle;Signal;HPM_P1;HPM_P2
2022/10/19 00:01:28;;;;;;;37.05;26.48;;;;;;;18.58;73.10;101969.66;4939055;28;20303;-82
2022/10/19 00:03:57;;;;;;;34.63;25.48;;;;;;;18.24;73.00;101907.72;4942798;28;20067;-82
2022/10/19 00:06:35;;;;;;;39.00;26.52;;;;;;;18.52;73.42;101954.16;4937848;28;20221;-82
2022/10/19 00:09:12;;;;;;;36.38;25.48;;;;;;;18.52;73.28;101956.84;4936540;28;20051;-82
2022/10/19 00:11:44;;;;;;;36.85;26.42;;;;;;;18.61;73.36;101970.34;4939078;28;20055;-81
2022/10/19 00:14:14;;;;;;;37.22;25.60;;;;;;;18.55;73.44;101964.59;4934962;28;20066;-82
2022/10/19 00:16:46;;;;;;;37.90;25.48;;;;;;;18.61;73.73;101968.50;4936409;28;20105;-83
2022/10/19 00:19:17;;;;;;;35.47;24.83;;;;;;;18.49;73.62;101959.00;4939980;28;20536;-84
2022/10/19 00:21:44;;;;;;;39.55;25.90;;;;;;;18.38;73.65;101951.19;4934848;28;20160;-82
2022/10/19 00:24:11;;;;;;;33.72;25.15;;;;;;;18.31;73.58;101953.66;4937591;28;20071;-82
2022/10/19 00:26:38;;;;;;;34.15;25.50;;;;;;;18.52;73.80;101983.75;4936123;28;20169;-82
2022/10/19 00:29:05;;;;;;;36.92;25.88;;;;;;;18.40;74.04;101955.41;4937448;28;20043;-82
2022/10/19 00:31:31;;;;;;;31.92;25.08;;;;;;;18.36;73.76;101954.03;4936709;28;20047;-79
2022/10/19 00:33:59;;;;;;;35.47;24.88;;;;;;;18.12;74.16;101903.56;4956153;28;20047;-84
2022/10/19 00:36:31;;;;;;;36.13;25.63;;;;;;;18.38;73.65;101943.13;4946640;28;20102;-81
2022/10/19 00:38:58;;;;;;;34.20;24.23;;;;;;;18.41;73.76;101950.88;4944897;28;20057;-79
2022/10/19 00:41:28;;;;;;;34.40;23.65;;;;;;;18.50;74.03;101972.28;4942598;28;20450;-82
2022/10/19 00:44:05;;;;;;;32.22;24.70;;;;;;;18.08;74.02;101903.06;4938350;28;20262;-81
2022/10/19 00:46:34;;;;;;;31.60;24.55;;;;;;;18.44;74.19;101962.16;4938738;28;20065;-82
2022/10/19 00:49:21;;;;;;;35.13;25.48;;;;;;;18.48;74.25;101963.53;4938215;28;20526;-79
2022/10/19 00:51:54;;;;;;;38.25;25.35;;;;;;;18.29;73.86;101926.91;4938741;28;20065;-83
2022/10/19 00:54:22;;;;;;;32.67;25.07;;;;;;;18.11;73.94;101908.09;4938605;28;20185;-81
2022/10/19 00:56:55;;;;;;;34.85;24.75;;;;;;;18.49;73.88;101965.22;4937272;28;20313;-83
2022/10/19 00:59:24;;;;;;;35.45;24.67;;;;;;;18.23;74.19;101924.84;4936153;28;20501;-83
2022/10/19 01:01:51;;;;;;;33.30;24.10;;;;;;;18.24;74.06;101923.84;4937608;28;20070;-83
2022/10/19 01:04:23;;;;;;;32.13;24.58;;;;;;;18.36;74.14;101940.56;4940740;28;20390;-83
2022/10/19 01:06:52;;;;;;;37.60;25.85;;;;;;;17.90;73.93;101861.91;4937087;28;20570;-82
2022/10/19 01:09:22;;;;;;;41.22;25.00;;;;;;;18.43;73.90;101949.72;4937963;28;20059;-83
2022/10/19 01:12:12;;;;;;;37.00;25.02;;;;;;;18.43;73.93;101951.56;4940403;28;20564;-81
2022/10/19 01:15:07;;;;;;;39.38;25.40;;;;;;;17.80;74.06;101845.00;4937827;28;20416;-82
2022/10/19 01:17:53;;;;;;;33.30;24.27;;;;;;;17.18;74.06;101742.84;4919355;29;20055;-82
2022/10/19 01:21:01;;;;;;;35.17;25.02;;;;;;;18.43;73.85;101941.66;4921601;29;20466;-83
2022/10/19 01:23:53;;;;;;;33.15;25.35;;;;;;;18.40;74.29;101944.66;4899843;29;20533;-83
2022/10/19 01:26:28;;;;;;;34.85;23.83;;;;;;;18.02;74.08;101879.47;4896526;29;20122;-82
2022/10/19 01:29:14;;;;;;;36.70;26.45;;;;;;;18.38;74.33;101941.28;4921880;28;20142;-82
2022/10/19 01:31:46;;;;;;;34.83;24.23;;;;;;;18.38;74.38;101935.91;4918033;28;20524;-82
2022/10/19 01:34:23;;;;;;;35.97;26.02;;;;;;;18.32;74.16;101926.59;4916895;29;20407;-83
2022/10/19 01:37:01;;;;;;;35.95;25.65;;;;;;;18.41;73.64;101930.19;4936002;28;20542;-82
2022/10/19 01:39:44;;;;;;;35.67;24.80;;;;;;;18.40;73.87;101931.22;4938464;28;20658;-81
2022/10/19 01:42:28;;;;;;;36.78;25.05;;;;;;;18.21;74.10;101896.44;4952739;28;20508;-81
2022/10/19 01:45:15;;;;;;;37.33;26.25;;;;;;;18.30;74.27;101919.69;4936949;28;20948;-82
2022/10/19 01:48:05;;;;;;;34.47;24.42;;;;;;;18.28;74.26;101913.63;4919585;29;20379;-82
2022/10/19 01:50:37;;;;;;;32.60;22.45;;;;;;;18.32;73.90;101915.00;4916102;29;20142;-82
2022/10/19 01:53:07;;;;;;;34.97;25.10;;;;;;;18.29;73.75;101900.03;4919284;29;20449;-82
2022/10/19 01:55:41;;;;;;;34.67;25.35;;;;;;;18.28;73.85;101900.19;4918428;28;20063;-80
2022/10/19 01:58:12;;;;;;;35.95;24.88;;;;;;;18.33;74.30;101911.31;4916468;29;20055;-83
2022/10/19 02:00:42;;;;;;;32.78;23.88;;;;;;;17.79;74.11;101819.97;4917600;29;20058;-82
2022/10/19 02:03:18;;;;;;;37.03;25.45;;;;;;;18.06;73.68;101864.75;4911721;29;20601;-82
2022/10/19 02:05:50;;;;;;;34.13;23.88;;;;;;;18.35;73.85;101909.34;4943060;28;20398;-82
2022/10/19 02:08:29;;;;;;;33.10;23.42;;;;;;;18.32;73.65;101904.25;4938706;28;20376;-82
2022/10/19 02:10:58;;;;;;;33.03;23.13;;;;;;;18.31;73.92;101908.78;4934897;28;20619;-82
2022/10/19 02:13:27;;;;;;;33.53;22.33;;;;;;;18.42;73.18;101909.53;4935866;28;20053;-82
2022/10/19 02:15:58;;;;;;;34.72;22.17;;;;;;;17.80;73.07;101797.50;4928766;28;20435;-82
2022/10/19 02:18:33;;;;;;;33.13;24.40;;;;;;;18.47;72.49;101905.38;4936178;28;20047;-83
2022/10/19 02:21:04;;;;;;;37.00;25.10;;;;;;;18.10;72.45;101847.28;4934498;28;20057;-82
2022/10/19 02:23:31;;;;;;;35.03;24.15;;;;;;;18.44;72.47;101900.31;4951156;28;20050;-80
2022/10/19 02:25:58;;;;;;;34.33;24.80;;;;;;;18.40;72.51;101892.69;4935345;28;20157;-80
2022/10/19 02:28:29;;;;;;;35.00;23.77;;;;;;;18.49;72.37;101900.66;4936358;28;20133;-82
2022/10/19 02:30:59;;;;;;;45.53;23.85;;;;;;;18.42;72.44;101896.91;4935460;28;20094;-83
2022/10/19 02:33:28;;;;;;;30.33;23.73;;;;;;;18.23;72.84;101873.78;4935770;28;20059;-83
2022/10/19 02:35:56;;;;;;;32.13;23.33;;;;;;;18.26;72.61;101883.38;4934915;28;20153;-83
2022/10/19 02:38:24;;;;;;;32.17;22.88;;;;;;;18.29;72.76;101900.03;4939245;28;20114;-81
2022/10/19 02:41:01;;;;;;;34.78;23.00;;;;;;;18.05;73.24;101876.47;4940102;28;20061;-82
2022/10/19 02:43:35;;;;;;;34.92;23.05;;;;;;;18.14;73.55;101888.16;4939715;28;20050;-82
2022/10/19 02:46:10;;;;;;;33.38;22.17;;;;;;;17.93;73.68;101858.91;4939265;28;20053;-82
2022/10/19 02:48:44;;;;;;;32.90;22.42;;;;;;;18.06;73.16;101888.94;4958624;28;20043;-81
2022/10/19 02:51:32;;;;;;;31.50;23.10;;;;;;;17.87;74.16;101865.75;4956678;28;20133;-81
2022/10/19 02:53:59;;;;;;;37.90;23.63;;;;;;;17.47;74.45;101824.00;4957327;28;20564;-78
2022/10/19 02:56:32;;;;;;;37.80;24.92;;;;;;;17.77;74.41;101877.50;4956751;28;20588;-79
2022/10/19 02:58:59;;;;;;;37.42;23.90;;;;;;;17.01;74.65;101758.78;4957021;28;20121;-81
2022/10/19 03:01:26;;;;;;;30.35;22.98;;;;;;;17.76;74.47;101870.47;4958928;28;20310;-80
2022/10/19 03:03:55;;;;;;;30.83;21.30;;;;;;;17.75;74.09;101874.16;4956084;28;20113;-79
2022/10/19 03:06:22;;;;;;;32.78;24.02;;;;;;;17.75;74.48;101874.16;4971508;28;20275;-80
2022/10/19 03:08:51;;;;;;;38.28;25.27;;;;;;;17.78;74.52;101887.28;4955448;28;20058;-83
2022/10/19 03:11:18;;;;;;;31.33;23.50;;;;;;;17.13;74.48;101780.88;4927374;28;20384;-83
2022/10/19 03:13:48;;;;;;;35.35;23.95;;;;;;;17.69;74.41;101876.47;4941403;28;20051;-82
2022/10/19 03:16:15;;;;;;;34.42;24.67;;;;;;;17.58;74.46;101868.59;4940364;28;20426;-84
2022/10/19 03:18:41;;;;;;;37.03;25.13;;;;;;;17.58;74.75;101879.34;4937426;28;20198;-81
2022/10/19 03:21:10;;;;;;;41.28;27.17;;;;;;;17.65;74.71;101887.66;4938275;28;20053;-81
2022/10/19 03:23:38;;;;;;;38.15;26.40;;;;;;;17.38;74.94;101846.41;4940658;28;20062;-82
2022/10/19 03:26:07;;;;;;;41.00;27.25;;;;;;;16.87;74.97;101765.50;4932823;28;20544;-82
2022/10/19 03:28:37;;;;;;;37.30;28.23;;;;;;;17.02;74.96;101791.84;4941847;28;20651;-84
2022/10/19 03:31:05;;;;;;;40.22;27.08;;;;;;;17.44;75.05;101866.44;4946312;28;20083;-82
2022/10/19 03:33:31;;;;;;;38.92;26.42;;;;;;;17.26;74.97;101840.41;4947193;28;20146;-82
2022/10/19 03:36:26;;;;;;;34.80;26.17;;;;;;;17.57;74.77;101899.13;4938823;28;20157;-83
2022/10/19 03:38:55;;;;;;;39.45;27.25;;;;;;;17.52;75.03;101885.31;4940752;28;20583;-80
2022/10/19 03:41:26;;;;;;;37.60;26.10;;;;;;;17.18;75.14;101831.41;4940599;28;20673;-79
2022/10/19 03:43:53;;;;;;;41.58;26.65;;;;;;;17.57;75.33;101892.91;4941964;28;20324;-81
2022/10/19 03:46:20;;;;;;;40.72;27.08;;;;;;;17.45;75.12;101868.97;4938689;28;20054;-82
2022/10/19 03:48:49;;;;;;;38.15;27.70;;;;;;;17.45;74.67;101873.47;4935841;28;20050;-81
2022/10/19 03:51:23;;;;;;;35.65;26.98;;;;;;;17.34;74.73;101860.28;4938913;28;20055;-81
2022/10/19 03:54:00;;;;;;;38.92;25.70;;;;;;;17.47;75.10;101887.59;4937909;28;20153;-82
2022/10/19 03:56:30;;;;;;;44.10;26.38;;;;;;;16.95;75.14;101806.84;4939010;28;20051;-82
2022/10/19 03:59:02;;;;;;;38.67;26.13;;;;;;;17.35;75.16;101867.31;4939393;28;20584;-83
2022/10/19 04:01:38;;;;;;;45.25;25.65;;;;;;;17.27;74.96;101835.88;4937804;28;20522;-82
2022/10/19 04:04:10;;;;;;;40.30;26.10;;;;;;;17.56;75.05;101892.06;4937323;28;20054;-81
2022/10/19 04:06:43;;;;;;;38.65;26.35;;;;;;;17.09;74.75;101827.81;4937979;28;20683;-80
2022/10/19 04:09:16;;;;;;;42.72;26.50;;;;;;;17.08;74.47;101831.47;4939460;28;20261;-80
2022/10/19 04:11:46;;;;;;;33.67;24.58;;;;;;;17.40;74.52;101897.25;4953561;28;20235;-82
2022/10/19 04:14:14;;;;;;;37.47;26.63;;;;;;;17.37;74.87;101876.09;4938184;28;20058;-83
2022/10/19 04:16:59;;;;;;;38.05;25.35;;;;;;;17.49;74.83;101896.34;4940179;28;20197;-82
2022/10/19 04:19:29;;;;;;;38.65;26.23;;;;;;;17.46;75.04;101888.59;4937876;28;20375;-82
2022/10/19 04:21:57;;;;;;;45.90;26.70;;;;;;;17.45;74.34;101868.97;4938064;28;20123;-82
2022/10/19 04:24:27;;;;;;;38.22;25.40;;;;;;;17.64;74.03;101892.16;4937217;28;20308;-84
2022/10/19 04:26:55;;;;;;;43.78;25.35;;;;;;;17.58;74.58;101895.47;4936390;28;20765;-82
2022/10/19 04:29:24;;;;;;;37.08;25.45;;;;;;;17.58;74.03;101897.31;4937906;28;20196;-82
2022/10/19 04:31:59;;;;;;;31.05;24.75;;;;;;;17.54;74.09;101894.06;4938743;28;20043;-82
2022/10/19 04:34:29;;;;;;;42.28;26.63;;;;;;;17.36;74.92;101872.56;4939178;28;20161;-81
2022/10/19 04:36:58;;;;;;;37.22;24.73;;;;;;;17.40;74.76;101886.50;4938207;28;20461;-82
2022/10/19 04:39:27;;;;;;;35.45;24.48;;;;;;;17.50;74.65;101889.97;4936159;28;20674;-83
2022/10/19 04:41:54;;;;;;;36.78;26.38;;;;;;;17.62;73.85;101890.63;4939480;28;20186;-81
2022/10/19 04:44:24;;;;;;;37.17;24.13;;;;;;;17.48;74.10;101889.31;4952122;28;20133;-81
2022/10/19 04:46:51;;;;;;;38.22;25.73;;;;;;;17.18;74.64;101845.66;4949626;28;20247;-82
2022/10/19 04:49:18;;;;;;;37.17;26.38;;;;;;;17.29;74.69;101882.19;4933828;28;20243;-82
2022/10/19 04:51:45;;;;;;;33.72;26.08;;;;;;;17.33;74.98;101901.53;4934895;28;20046;-83
2022/10/19 04:54:12;;;;;;;33.67;25.38;;;;;;;17.28;75.09;101888.53;4937403;28;20141;-82
2022/10/19 04:56:39;;;;;;;40.58;27.10;;;;;;;17.27;75.20;101884.19;4936770;28;21196;-81
2022/10/19 04:59:05;;;;;;;41.22;26.77;;;;;;;17.26;75.45;101886.03;4952234;28;20065;-81
2022/10/19 05:01:32;;;;;;;43.15;26.73;;;;;;;17.11;75.43;101860.66;4949281;28;20299;-82
2022/10/19 05:04:01;;;;;;;87.97;70.65;;;;;;;17.03;75.08;101853.38;4940623;28;20116;-80
2022/10/19 05:06:29;;;;;;;45.20;32.15;;;;;;;16.88;75.46;101831.56;4935047;28;20457;-82
2022/10/19 05:08:57;;;;;;;47.42;28.20;;;;;;;17.21;75.39;101877.59;4935319;28;20050;-82
2022/10/19 05:11:24;;;;;;;41.67;27.65;;;;;;;17.18;75.28;101864.44;4938245;28;20086;-82
2022/10/19 05:13:51;;;;;;;46.25;28.30;;;;;;;17.21;74.78;101836.47;4936007;28;20206;-82
2022/10/19 05:16:21;;;;;;;46.65;28.73;;;;;;;17.38;74.85;101872.38;4892456;28;20338;-81
2022/10/19 05:18:52;;;;;;;44.13;27.08;;;;;;;17.21;75.23;101855.25;4931880;28;20078;-81
2022/10/19 05:21:20;;;;;;;43.95;28.40;;;;;;;16.80;75.33;101803.81;4953352;28;20209;-82
2022/10/19 05:23:51;;;;;;;42.67;28.10;;;;;;;17.00;75.37;101834.06;4936454;28;20145;-82
2022/10/19 05:26:21;;;;;;;43.08;26.73;;;;;;;17.01;75.51;101843.78;4936453;28;20409;-81
2022/10/19 06:14:52;;;;;;;38.15;26.92;;;;;;;17.09;77.42;101876.09;5043491;27;20389;-82
2022/10/19 06:17:19;;;;;;;42.50;26.30;;;;;;;17.08;77.21;101880.59;5042940;28;20514;-81
2022/10/19 06:19:45;;;;;;;43.95;26.88;;;;;;;17.07;77.77;101870.03;5051856;28;20497;-81
2022/10/19 06:22:12;;;;;;;47.28;27.05;;;;;;;16.91;77.32;101832.25;5054083;28;20512;-82
2022/10/19 06:24:39;;;;;;;46.88;28.40;;;;;;;17.29;77.14;101888.41;5052524;28;20593;-83
2022/10/19 06:27:08;;;;;;;41.47;27.73;;;;;;;17.35;76.83;101894.16;5053895;28;20044;-79
2022/10/19 06:29:35;;;;;;;44.60;27.00;;;;;;;17.15;76.83;101854.00;5056024;28;20598;-83
2022/10/19 06:32:02;;;;;;;45.20;27.40;;;;;;;17.44;76.81;101898.66;5054739;28;20551;-81
2022/10/19 06:34:28;;;;;;;41.85;26.58;;;;;;;17.43;77.23;101891.59;5055151;28;20426;-82
2022/10/19 06:36:55;;;;;;;36.20;26.02;;;;;;;17.43;76.95;101883.53;5055057;28;20048;-83
2022/10/19 06:39:22;;;;;;;43.80;26.05;;;;;;;17.52;76.49;101898.72;5057903;28;20056;-81
2022/10/19 06:41:49;;;;;;;42.60;26.42;;;;;;;16.93;76.20;101803.44;5095260;27;20044;-80
2022/10/19 06:44:19;;;;;;;38.53;27.27;;;;;;;17.28;76.58;101842.91;5088756;27;20225;-81
2022/10/19 06:46:46;;;;;;;47.65;26.95;;;;;;;17.73;76.41;101914.59;5055104;28;20056;-81
2022/10/19 06:49:13;;;;;;;41.78;26.10;;;;;;;17.58;75.46;101890.09;5057484;28;20592;-82
2022/10/19 06:51:40;;;;;;;38.85;27.77;;;;;;;17.69;76.26;101887.19;5035469;28;20555;-81
2022/10/19 06:54:07;;;;;;;39.45;27.48;;;;;;;17.70;75.63;101879.97;5068726;28;20275;-81
2022/10/19 06:56:34;;;;;;;38.33;27.98;;;;;;;17.78;75.47;101889.97;5021162;28;20490;-81
2022/10/19 06:59:00;;;;;;;42.65;28.65;;;;;;;18.02;75.30;101935.91;5036198;28;20157;-82
2022/10/19 07:01:27;;;;;;;42.45;29.52;;;;;;;18.07;75.30;101938.97;5052559;28;21074;-81
2022/10/19 07:03:54;;;;;;;42.17;28.75;;;;;;;18.01;74.63;101907.34;5051555;28;20051;-83
2022/10/19 07:06:22;;;;;;;50.28;33.08;;;;;;;18.23;74.78;101934.72;5052822;28;20532;-80
2022/10/19 07:08:49;;;;;;;39.30;27.70;;;;;;;18.25;74.33;101938.13;5051028;28;20060;-83
2022/10/19 07:11:21;;;;;;;44.50;26.63;;;;;;;17.87;74.66;101864.91;5049931;28;20082;-80
2022/10/19 07:13:48;;;;;;;42.35;26.25;;;;;;;18.35;73.96;101941.59;5050503;28;20169;-83
2022/10/19 07:16:17;;;;;;;51.42;28.02;;;;;;;18.42;74.10;101944.47;5039822;28;20456;-83
2022/10/19 07:18:49;;;;;;;38.95;28.00;;;;;;;18.41;74.00;101932.88;5041829;28;20376;-79
2022/10/19 07:21:20;;;;;;;44.55;28.23;;;;;;;17.98;73.86;101853.91;5042582;28;20640;-83
2022/10/19 07:23:48;;;;;;;45.55;27.98;;;;;;;18.56;73.79;101939.38;5041563;28;20044;-82
2022/10/19 07:26:22;;;;;;;41.45;29.13;;;;;;;18.50;73.08;101931.13;5042560;28;20052;-83
2022/10/19 07:28:50;;;;;;;45.83;30.23;;;;;;;18.24;73.00;101871.94;5043844;28;20589;-81
2022/10/19 07:31:19;;;;;;;51.47;29.40;;;;;;;18.35;72.48;101877.91;5039870;28;20087;-80
2022/10/19 07:33:51;;;;;;;51.55;30.67;;;;;;;18.35;71.46;101855.56;5029542;28;20090;-83
2022/10/19 07:36:18;;;;;;;59.80;33.70;;;;;;;18.96;71.14;101950.66;5037717;28;20056;-83
2022/10/19 07:38:45;;;;;;;55.55;33.30;;;;;;;18.97;70.41;101920.88;5073521;28;20382;-83
2022/10/19 07:41:16;;;;;;;58.33;34.45;;;;;;;18.85;69.96;101903.31;5041191;28;20296;-83
2022/10/19 07:43:44;;;;;;;59.85;33.72;;;;;;;17.91;69.08;101732.81;5059051;28;20135;-82
2022/10/19 07:46:17;;;;;;;58.35;34.20;;;;;;;19.11;68.46;101926.66;5050875;28;20055;-81
2022/10/19 07:48:44;;;;;;;56.03;34.35;;;;;;;19.28;67.91;101944.59;5053096;28;20536;-81
2022/10/19 07:51:13;;;;;;;55.80;33.30;;;;;;;19.31;68.14;101944.25;5066206;28;20056;-81
2022/10/19 07:53:43;;;;;;;54.20;33.70;;;;;;;19.00;67.78;101877.50;5046396;28;20611;-83
2022/10/19 07:56:12;;;;;;;61.13;32.47;;;;;;;19.47;67.12;101939.94;5038613;28;20322;-84
2022/10/19 07:58:40;;;;;;;55.63;35.05;;;;;;;19.04;67.42;101874.50;5035981;28;20530;-81
2022/10/19 08:01:10;;;;;;;53.20;33.15;;;;;;;19.35;66.88;101915.19;5036948;28;20185;-80
2022/10/19 08:03:39;;;;;;;56.60;32.00;;;;;;;19.26;66.75;101903.50;5040910;28;20048;-82
2022/10/19 08:06:27;;;;;;;55.80;34.17;;;;;;;19.58;66.64;101947.72;5037409;28;20154;-83
2022/10/19 08:08:54;;;;;;;56.05;35.67;;;;;;;19.35;66.03;101899.00;5036858;28;20048;-82
2022/10/19 08:11:28;;;;;;;54.30;35.05;;;;;;;19.07;66.35;101852.63;5039547;28;20478;-82
2022/10/19 08:13:58;;;;;;;53.20;34.47;;;;;;;18.73;66.16;101789.72;5038284;28;20061;-82
2022/10/19 08:16:39;;;;;;;61.55;35.47;;;;;;;19.75;66.32;101944.09;5043467;28;20567;-82
2022/10/19 08:19:08;;;;;;;61.85;34.78;;;;;;;19.16;66.10;101835.50;5037243;28;20438;-83
2022/10/19 08:21:37;;;;;;;52.33;32.47;;;;;;;19.76;66.01;101926.13;5040626;28;20487;-82
2022/10/19 08:24:07;;;;;;;52.78;31.45;;;;;;;19.63;65.76;101894.19;5036682;28;20227;-84
2022/10/19 08:26:37;;;;;;;62.00;33.45;;;;;;;19.61;65.94;101882.75;5037620;28;20458;-83
2022/10/19 08:29:11;;;;;;;56.08;35.45;;;;;;;19.94;64.86;101923.28;5056268;28;20598;-83
2022/10/19 08:31:38;;;;;;;66.72;36.78;;;;;;;19.62;64.56;101852.13;5038935;28;20052;-84
2022/10/19 08:34:06;;;;;;;57.72;35.47;;;;;;;20.07;64.98;101923.63;4987518;28;20167;-84
2022/10/19 08:36:34;;;;;;;54.90;36.78;;;;;;;20.03;64.24;101889.94;5029160;28;20422;-83
2022/10/19 08:39:07;;;;;;;58.95;37.17;;;;;;;19.23;64.52;101758.47;5007802;28;20095;-83
2022/10/19 08:41:36;;;;;;;54.72;36.25;;;;;;;20.33;64.64;101936.13;5031423;28;20057;-83
2022/10/19 08:44:34;;;;;;;65.15;33.25;;;;;;;20.06;64.31;101866.16;5032144;28;20049;-83
2022/10/19 08:47:07;;;;;;;62.38;37.35;;;;;;;20.09;64.12;101854.22;5050865;28;20040;-84
2022/10/19 08:49:38;;;;;;;60.60;36.80;;;;;;;20.37;64.11;101886.22;5042085;28;20202;-83
2022/10/19 08:52:23;;;;;;;56.85;37.33;;;;;;;20.76;63.46;101942.19;5046200;28;20051;-83
2022/10/19 08:55:12;;;;;;;58.83;37.90;;;;;;;20.85;63.18;101943.84;5044362;28;20052;-83
2022/10/19 08:58:07;;;;;;;57.47;37.17;;;;;;;20.99;62.63;101945.84;5065104;28;20056;-82
2022/10/19 09:00:53;;;;;;;66.25;39.22;;;;;;;20.84;62.74;101888.19;5038442;28;20079;-82
2022/10/19 09:03:30;;;;;;;63.88;38.33;;;;;;;20.87;62.96;101882.44;5069041;28;20053;-81
2022/10/19 09:06:30;;;;;;;59.58;35.53;;;;;;;21.22;62.07;101924.34;5036322;28;20187;-81
2022/10/19 09:08:58;;;;;;;50.70;32.22;;;;;;;21.32;62.63;101933.09;5054247;28;20053;-80
2022/10/19 09:11:33;;;;;;;63.67;36.30;;;;;;;21.35;61.59;101904.88;5052231;28;20056;-81
2022/10/19 09:14:10;;;;;;;58.15;37.08;;;;;;;21.65;61.48;101934.81;5037322;28;20057;-81
2022/10/19 09:16:37;;;;;;;54.90;34.65;;;;;;;21.63;60.91;101904.44;5037962;28;20667;-83
2022/10/19 09:19:14;;;;;;;54.55;34.80;;;;;;;21.89;60.78;101931.97;5035719;28;20052;-84
2022/10/19 09:22:16;;;;;;;60.65;36.08;;;;;;;21.64;60.14;101873.69;5056785;28;20736;-83
2022/10/19 09:24:54;;;;;;;59.03;34.13;;;;;;;22.09;60.10;101931.50;5024906;28;20098;-83
2022/10/19 09:27:24;;;;;;;56.72;33.17;;;;;;;22.23;59.96;101928.03;5038412;28;20179;-84
2022/10/19 09:30:03;;;;;;;47.20;32.22;;;;;;;22.44;58.22;101905.72;5040421;28;20459;-83
2022/10/19 09:32:36;;;;;;;56.47;35.92;;;;;;;22.16;58.57;101851.31;5035138;28;20412;-84
2022/10/19 09:35:26;;;;;;;52.00;32.95;;;;;;;22.52;58.14;101896.69;5036963;28;20055;-82
2022/10/19 09:37:54;;;;;;;51.63;33.75;;;;;;;22.45;57.71;101860.56;5036504;28;20084;-83
2022/10/19 09:40:29;;;;;;;53.97;33.22;;;;;;;22.70;58.17;101908.00;5038840;28;20063;-82
2022/10/19 09:43:07;;;;;;;59.72;33.30;;;;;;;22.85;58.04;101915.31;5037888;28;20602;-83
2022/10/19 09:45:59;;;;;;;55.80;35.10;;;;;;;22.96;57.53;101915.69;5045534;28;20639;-84
2022/10/19 09:48:34;;;;;;;62.75;37.40;;;;;;;23.05;57.31;101905.63;5039056;28;20574;-82
2022/10/19 09:51:09;;;;;;;61.22;36.80;;;;;;;23.21;56.86;101916.25;5039003;28;20395;-82
2022/10/19 09:53:36;;;;;;;62.08;38.13;;;;;;;23.16;56.30;101885.38;5037827;28;20059;-83
2022/10/19 09:56:07;;;;;;;49.80;33.35;;;;;;;23.44;56.25;101915.28;5036850;28;20301;-82
2022/10/19 09:58:45;;;;;;;61.30;37.58;;;;;;;23.51;56.14;101910.78;5040160;28;20160;-82
2022/10/19 10:01:34;;;;;;;52.90;33.80;;;;;;;23.39;56.03;101872.50;5039385;28;20739;-81
2022/10/19 10:04:14;;;;;;;54.55;35.25;;;;;;;23.54;55.74;101874.34;5019513;28;20419;-81
2022/10/19 10:06:47;;;;;;;67.70;39.03;;;;;;;23.89;55.14;101913.34;5020173;28;20766;-82
2022/10/19 10:09:27;;;;;;;57.55;35.65;;;;;;;23.81;54.85;101878.19;5024488;28;20659;-81
2022/10/19 10:11:58;;;;;;;57.83;37.42;;;;;;;23.57;54.50;101828.72;5031049;28;20203;-82
2022/10/19 10:14:30;;;;;;;65.65;39.47;;;;;;;23.96;54.30;101870.84;5032813;28;20063;-82
2022/10/19 10:17:18;;;;;;;;;;;;;;;24.24;53.79;101917.00;5050429;28;20064;-82
2022/10/19 10:19:57;;;;;;;60.47;39.35;;;;;;;23.46;53.22;101764.19;5036902;28;20105;-82
2022/10/19 10:22:31;;;;;;;60.63;37.95;;;;;;;23.29;53.44;101695.88;5077301;28;20055;-81
2022/10/19 10:25:00;;;;;;;75.05;41.70;;;;;;;24.65;52.84;101897.31;5059564;28;20051;-81
2022/10/19 10:27:30;;;;;;;69.43;40.65;;;;;;;23.96;52.43;101772.34;5057470;28;20068;-80
2022/10/19 10:29:58;;;;;;;60.70;38.72;;;;;;;24.87;52.45;101899.97;5059315;28;20101;-80
2022/10/19 10:32:27;;;;;;;60.97;38.17;;;;;;;24.27;51.85;101770.13;5056063;28;20036;-83
2022/10/19 10:35:15;;;;;;;67.78;42.45;;;;;;;23.63;51.54;101657.19;5055079;28;20087;-82
2022/10/19 10:38:28;;;;;;;60.22;36.22;;;;;;;24.98;50.54;101836.06;5053702;28;20105;-79
2022/10/19 10:41:11;;;;;;;56.45;37.28;;;;;;;25.10;49.85;101829.06;5046134;28;20075;-82
2022/10/19 10:44:05;;;;;;;74.00;46.20;;;;;;;24.88;49.22;101777.56;5039893;28;20203;-84
2022/10/19 10:46:36;;;;;;;65.78;39.90;;;;;;;24.63;49.99;101736.50;5040295;28;20229;-84
2022/10/19 10:49:15;;;;;;;71.32;42.40;;;;;;;25.41;50.42;101854.88;5040327;28;20056;-84
2022/10/19 10:51:46;;;;;;;;;;;;;;;25.58;49.37;101875.22;5060581;28;20583;-82
2022/10/19 10:54:30;;;;;;;66.72;42.25;;;;;;;25.11;49.55;101803.53;5042038;28;20263;-83
2022/10/19 10:57:19;;;;;;;63.40;40.13;;;;;;;25.50;49.75;101861.81;5042350;28;20091;-83
2022/10/19 11:00:06;;;;;;;66.65;43.38;;;;;;;25.29;49.70;101862.78;5040321;28;20055;-80
2022/10/19 11:02:46;;;;;;;67.07;41.40;;;;;;;24.48;50.43;101761.06;5040994;28;20064;-81
2022/10/19 11:05:45;;;;;;;69.95;42.75;;;;;;;25.00;50.91;101855.72;5035280;28;20152;-82
2022/10/19 11:08:50;;;;;;;58.25;35.65;;;;;;;25.00;50.95;101847.56;5032261;28;20627;-82
2022/10/19 11:11:26;;;;;;;60.80;39.63;;;;;;;24.97;51.32;101850.72;5070964;28;20413;-82
2022/10/19 11:14:07;;;;;;;64.07;39.78;;;;;;;24.88;51.09;101848.16;5050265;28;20052;-82
2022/10/19 11:16:40;;;;;;;67.40;41.35;;;;;;;24.03;51.42;101730.72;5039027;28;20479;-82
2022/10/19 11:19:17;;;;;;;60.97;39.97;;;;;;;24.14;51.66;101770.00;5035357;28;20037;-82
2022/10/19 11:22:14;;;;;;;75.95;44.33;;;;;;;23.27;51.31;101642.91;5053978;28;20059;-80
2022/10/19 11:24:54;;;;;;;62.13;40.88;;;;;;;24.34;52.16;101824.41;5051321;28;20730;-82
2022/10/19 11:27:42;;;;;;;57.03;36.15;;;;;;;24.47;52.48;101835.41;5035846;28;20056;-82
2022/10/19 11:30:23;;;;;;;62.67;38.22;;;;;;;24.45;52.10;101837.44;5069631;28;20537;-81
2022/10/19 11:33:34;;;;;;;64.57;38.10;;;;;;;24.22;52.39;101802.41;5069714;28;20464;-83
2022/10/19 11:36:30;;;;;;;60.13;38.78;;;;;;;24.26;53.18;101813.72;4997826;28;20222;-82
2022/10/19 11:39:19;;;;;;;61.67;41.33;;;;;;;24.20;52.94;101807.22;4999888;28;20690;-83
2022/10/19 11:42:05;;;;;;;66.70;43.70;;;;;;;23.82;52.30;101749.75;5034344;28;20044;-81
2022/10/19 11:44:35;;;;;;;68.70;43.58;;;;;;;23.93;52.73;101751.06;5037750;28;20456;-82
2022/10/19 11:47:23;;;;;;;62.78;40.38;;;;;;;24.22;52.70;101804.28;5042693;28;20095;-82
2022/10/19 11:50:01;;;;;;;56.53;36.55;;;;;;;23.83;52.54;101735.13;5041632;28;20842;-82
2022/10/19 11:52:57;;;;;;;67.97;42.58;;;;;;;23.94;52.12;101750.88;5024657;28;20061;-81
2022/10/19 11:55:51;;;;;;;68.43;43.13;;;;;;;24.23;52.32;101781.56;5023302;28;20242;-82
2022/10/19 11:58:48;;;;;;;54.90;35.63;;;;;;;24.20;52.59;101785.50;5042636;28;20060;-82
2022/10/19 12:01:41;;;;;;;67.15;40.58;;;;;;;24.09;52.43;101765.16;5056311;28;20143;-85
2022/10/19 12:04:37;;;;;;;59.70;40.00;;;;;;;23.93;52.36;101721.22;5036799;28;21095;-82
2022/10/19 12:07:42;;;;;;;59.60;38.00;;;;;;;24.21;52.61;101775.47;4969499;28;20060;-84
2022/10/19 12:10:28;;;;;;;68.53;39.47;;;;;;;24.17;52.41;101774.19;5031840;28;20117;-82
2022/10/19 12:13:02;;;;;;;57.30;36.60;;;;;;;23.39;52.48;101654.91;5037148;28;20068;-83
2022/10/19 12:15:38;;;;;;;59.03;38.67;;;;;;;24.13;52.50;101770.19;5042043;28;20079;-83
2022/10/19 12:18:31;;;;;;;56.92;38.47;;;;;;;23.77;51.87;101714.25;5042496;28;20047;-82
2022/10/19 12:21:03;;;;;;;52.60;34.38;;;;;;;24.04;52.46;101769.53;5038981;28;20549;-82
2022/10/19 12:23:34;;;;;;;54.20;34.72;;;;;;;24.05;51.82;101771.19;5041410;28;20059;-82
2022/10/19 12:26:04;;;;;;;54.45;37.08;;;;;;;23.79;51.91;101714.91;5040203;28;20049;-81
2022/10/19 12:28:34;;;;;;;57.33;35.00;;;;;;;23.77;51.80;101706.13;5041346;28;20067;-81